sensor_id;sensor_type;location;lat;lon;timestamp;P1;durP1;ratioP1;P2;durP2;ratioP2
60306;SDS011;46155;52.364;6.580;2023-02-28T04:01:45;9.40;;;8.67;;
60306;SDS011;46155;52.364;6.580;2023-02-28T04:04:13;8.50;;;7.80;;
60306;SDS011;46155;52.364;6.580;2023-02-28T04:06:40;12.33;;;8.50;;
60306;SDS011;46155;52.364;6.580;2023-02-28T04:09:07;8.97;;;8.03;;
60306;SDS011;46155;52.364;6.580;2023-02-28T04:11:37;9.90;;;8.90;;
60306;SDS011;46155;52.364;6.580;2023-02-28T04:14:05;11.33;;;8.07;;
60306;SDS011;46155;52.364;6.580;2023-02-28T04:16:32;9.43;;;8.50;;
60306;SDS011;46155;52.364;6.580;2023-02-28T04:19:00;9.70;;;8.80;;
60306;SDS011;46155;52.364;6.580;2023-02-28T04:21:31;8.37;;;7.63;;
60306;SDS011;46155;52.364;6.580;2023-02-28T04:23:58;9.27;;;8.47;;
60306;SDS011;46155;52.364;6.580;2023-02-28T04:26:27;12.90;;;8.67;;
60306;SDS011;46155;52.364;6.580;2023-02-28T04:28:57;10.33;;;9.53;;
60306;SDS011;46155;52.364;6.580;2023-02-28T04:31:23;9.23;;;8.63;;
60306;SDS011;46155;52.364;6.580;2023-02-28T04:33:49;8.93;;;8.13;;
60306;SDS011;46155;52.364;6.580;2023-02-28T04:36:14;11.47;;;9.00;;
60306;SDS011;46155;52.364;6.580;2023-02-28T04:38:42;10.57;;;9.77;;
60306;SDS011;46155;52.364;6.580;2023-02-28T04:41:08;9.63;;;8.87;;
60306;SDS011;46155;52.364;6.580;2023-02-28T04:43:33;9.73;;;8.77;;
60306;SDS011;46155;52.364;6.580;2023-02-28T04:46:00;12.27;;;11.03;;
60306;SDS011;46155;52.364;6.580;2023-02-28T04:48:28;14.57;;;9.40;;
60306;SDS011;46155;52.364;6.580;2023-02-28T04:50:55;10.93;;;10.03;;
60306;SDS011;46155;52.364;6.580;2023-02-28T04:53:24;10.77;;;9.97;;
60306;SDS011;46155;52.364;6.580;2023-02-28T04:55:49;11.27;;;9.97;;
60306;SDS011;46155;52.364;6.580;2023-02-28T04:58:15;10.53;;;8.87;;
60306;SDS011;46155;52.364;6.580;2023-02-28T05:00:41;10.30;;;9.43;;
60306;SDS011;46155;52.364;6.580;2023-02-28T05:03:06;10.93;;;9.10;;
60306;SDS011;46155;52.364;6.580;2023-02-28T05:05:31;10.70;;;9.67;;
60306;SDS011;46155;52.364;6.580;2023-02-28T05:07:57;10.23;;;9.20;;
60306;SDS011;46155;52.364;6.580;2023-02-28T05:10:22;10.03;;;9.23;;
60306;SDS011;46155;52.364;6.580;2023-02-28T05:12:48;10.43;;;9.63;;
60306;SDS011;46155;52.364;6.580;2023-02-28T05:15:13;12.60;;;11.60;;
60306;SDS011;46155;52.364;6.580;2023-02-28T05:17:39;11.30;;;10.20;;
60306;SDS011;46155;52.364;6.580;2023-02-28T05:20:05;10.73;;;9.70;;
60306;SDS011;46155;52.364;6.580;2023-02-28T05:22:31;10.40;;;9.60;;
60306;SDS011;46155;52.364;6.580;2023-02-28T05:24:57;10.57;;;9.50;;
60306;SDS011;46155;52.364;6.580;2023-02-28T05:27:22;9.17;;;8.40;;
60306;SDS011;46155;52.364;6.580;2023-02-28T05:29:47;10.13;;;9.13;;
60306;SDS011;46155;52.364;6.580;2023-02-28T05:32:13;10.00;;;9.23;;
60306;SDS011;46155;52.364;6.580;2023-02-28T05:34:38;9.20;;;8.40;;
60306;SDS011;46155;52.364;6.580;2023-02-28T05:37:04;8.43;;;7.23;;
60306;SDS011;46155;52.364;6.580;2023-02-28T05:39:30;10.80;;;7.43;;
60306;SDS011;46155;52.364;6.580;2023-02-28T05:41:56;13.47;;;7.90;;
60306;SDS011;46155;52.364;6.580;2023-02-28T05:44:21;9.07;;;8.27;;
60306;SDS011;46155;52.364;6.580;2023-02-28T05:46:47;9.60;;;7.33;;
60306;SDS011;46155;52.364;6.580;2023-02-28T05:49:12;9.40;;;8.50;;
60306;SDS011;46155;52.364;6.580;2023-02-28T05:51:37;9.60;;;8.70;;
60306;SDS011;46155;52.364;6.580;2023-02-28T05:54:04;9.53;;;8.57;;
60306;SDS011;46155;52.364;6.580;2023-02-28T05:56:31;9.73;;;8.37;;
60306;SDS011;46155;52.364;6.580;2023-02-28T05:58:57;8.73;;;6.80;;
60306;SDS011;46155;52.364;6.580;2023-02-28T06:04:01;13.97;;;8.43;;
60306;SDS011;46155;52.364;6.580;2023-02-28T06:06:28;19.30;;;8.80;;
60306;SDS011;46155;52.364;6.580;2023-02-28T06:08:59;15.63;;;10.37;;
60306;SDS011;46155;52.364;6.580;2023-02-28T06:11:24;11.77;;;10.63;;
60306;SDS011;46155;52.364;6.580;2023-02-28T06:13:55;9.57;;;8.77;;
60306;SDS011;46155;52.364;6.580;2023-02-28T06:16:22;13.00;;;8.93;;
60306;SDS011;46155;52.364;6.580;2023-02-28T06:18:48;15.60;;;10.73;;
60306;SDS011;46155;52.364;6.580;2023-02-28T06:21:13;23.90;;;10.93;;
60306;SDS011;46155;52.364;6.580;2023-02-28T06:23:39;18.00;;;11.23;;
60306;SDS011;46155;52.364;6.580;2023-02-28T06:26:04;14.80;;;10.43;;
60306;SDS011;46155;52.364;6.580;2023-02-28T06:28:30;12.67;;;8.83;;
60306;SDS011;46155;52.364;6.580;2023-02-28T06:30:56;10.73;;;9.07;;
60306;SDS011;46155;52.364;6.580;2023-02-28T06:33:22;15.73;;;7.63;;
60306;SDS011;46155;52.364;6.580;2023-02-28T06:35:49;13.60;;;8.40;;
60306;SDS011;46155;52.364;6.580;2023-02-28T06:38:15;15.00;;;8.13;;
60306;SDS011;46155;52.364;6.580;2023-02-28T06:40:40;10.30;;;6.40;;
60306;SDS011;46155;52.364;6.580;2023-02-28T06:43:06;13.10;;;8.17;;
60306;SDS011;46155;52.364;6.580;2023-02-28T06:45:32;17.20;;;8.03;;
60306;SDS011;46155;52.364;6.580;2023-02-28T06:47:57;12.50;;;8.63;;
60306;SDS011;46155;52.364;6.580;2023-02-28T06:50:23;12.00;;;8.10;;
60306;SDS011;46155;52.364;6.580;2023-02-28T06:52:48;14.97;;;7.30;;
60306;SDS011;46155;52.364;6.580;2023-02-28T06:55:18;15.40;;;8.70;;
60306;SDS011;46155;52.364;6.580;2023-02-28T06:57:44;12.97;;;7.83;;
60306;SDS011;46155;52.364;6.580;2023-02-28T07:00:09;8.53;;;7.67;;
60306;SDS011;46155;52.364;6.580;2023-02-28T07:02:35;16.07;;;7.27;;
60306;SDS011;46155;52.364;6.580;2023-02-28T07:05:02;11.93;;;8.80;;
60306;SDS011;46155;52.364;6.580;2023-02-28T07:07:28;9.03;;;7.03;;
60306;SDS011;46155;52.364;6.580;2023-02-28T07:09:53;7.37;;;6.50;;
60306;SDS011;46155;52.364;6.580;2023-02-28T07:12:19;7.13;;;6.43;;
60306;SDS011;46155;52.364;6.580;2023-02-28T07:14:44;8.40;;;6.43;;
60306;SDS011;46155;52.364;6.580;2023-02-28T07:17:10;9.90;;;6.53;;
60306;SDS011;46155;52.364;6.580;2023-02-28T07:19:37;14.47;;;7.33;;
60306;SDS011;46155;52.364;6.580;2023-02-28T07:22:03;7.30;;;5.73;;
60306;SDS011;46155;52.364;6.580;2023-02-28T07:24:28;8.03;;;6.53;;
60306;SDS011;46155;52.364;6.580;2023-02-28T07:26:54;10.00;;;6.53;;
60306;SDS011;46155;52.364;6.580;2023-02-28T07:29:20;6.80;;;6.07;;
60306;SDS011;46155;52.364;6.580;2023-02-28T07:31:45;9.83;;;6.70;;
60306;SDS011;46155;52.364;6.580;2023-02-28T07:34:11;9.23;;;6.43;;
60306;SDS011;46155;52.364;6.580;2023-02-28T07:36:37;10.10;;;5.73;;
60306;SDS011;46155;52.364;6.580;2023-02-28T07:39:02;8.10;;;6.17;;
60306;SDS011;46155;52.364;6.580;2023-02-28T07:41:29;9.20;;;5.20;;
60306;SDS011;46155;52.364;6.580;2023-02-28T07:43:57;6.53;;;5.73;;
60306;SDS011;46155;52.364;6.580;2023-02-28T07:46:24;6.10;;;5.13;;
60306;SDS011;46155;52.364;6.580;2023-02-28T07:48:50;8.37;;;5.57;;
60306;SDS011;46155;52.364;6.580;2023-02-28T07:51:16;7.23;;;5.07;;
60306;SDS011;46155;52.364;6.580;2023-02-28T07:53:42;6.43;;;4.53;;
60306;SDS011;46155;52.364;6.580;2023-02-28T07:56:07;11.53;;;5.10;;
60306;SDS011;46155;52.364;6.580;2023-02-28T07:58:33;6.20;;;5.30;;
60306;SDS011;46155;52.364;6.580;2023-02-28T08:01:06;10.10;;;4.90;;
60306;SDS011;46155;52.364;6.580;2023-02-28T08:03:32;5.03;;;4.53;;
60306;SDS011;46155;52.364;6.580;2023-02-28T08:05:57;7.53;;;4.63;;
60306;SDS011;46155;52.364;6.580;2023-02-28T08:08:23;5.97;;;4.77;;
60306;SDS011;46155;52.364;6.580;2023-02-28T08:10:48;7.20;;;4.47;;
60306;SDS011;46155;52.364;6.580;2023-02-28T08:13:13;5.57;;;4.13;;
60306;SDS011;46155;52.364;6.580;2023-02-28T08:15:40;6.80;;;3.93;;
60306;SDS011;46155;52.364;6.580;2023-02-28T08:18:07;4.70;;;4.30;;
60306;SDS011;46155;52.364;6.580;2023-02-28T08:20:33;4.70;;;4.30;;
60306;SDS011;46155;52.364;6.580;2023-02-28T08:22:58;7.83;;;3.87;;
60306;SDS011;46155;52.364;6.580;2023-02-28T08:25:23;5.83;;;3.90;;
60306;SDS011;46155;52.364;6.580;2023-02-28T08:27:50;6.20;;;3.70;;
60306;SDS011;46155;52.364;6.580;2023-02-28T08:30:17;7.20;;;4.03;;
60306;SDS011;46155;52.364;6.580;2023-02-28T08:32:42;3.90;;;3.50;;
60306;SDS011;46155;52.364;6.580;2023-02-28T08:35:08;3.33;;;3.13;;
60306;SDS011;46155;52.364;6.580;2023-02-28T08:37:36;3.70;;;3.50;;
60306;SDS011;46155;52.364;6.580;2023-02-28T08:40:02;3.80;;;3.40;;
60306;SDS011;46155;52.364;6.580;2023-02-28T08:42:28;3.30;;;3.10;;
60306;SDS011;46155;52.364;6.580;2023-02-28T08:44:54;3.10;;;2.70;;
60306;SDS011;46155;52.364;6.580;2023-02-28T08:47:19;3.40;;;3.10;;
60306;SDS011;46155;52.364;6.580;2023-02-28T08:49:45;3.80;;;3.33;;
60306;SDS011;46155;52.364;6.580;2023-02-28T08:52:10;3.20;;;2.67;;
60306;SDS011;46155;52.364;6.580;2023-02-28T08:54:35;3.37;;;3.13;;
60306;SDS011;46155;52.364;6.580;2023-02-28T08:57:01;4.60;;;3.80;;
60306;SDS011;46155;52.364;6.580;2023-02-28T08:59:27;5.47;;;3.97;;
60306;SDS011;46155;52.364;6.580;2023-02-28T09:01:52;3.90;;;3.60;;
60306;SDS011;46155;52.364;6.580;2023-02-28T09:04:18;4.33;;;4.00;;
60306;SDS011;46155;52.364;6.580;2023-02-28T09:06:43;4.33;;;3.37;;
60306;SDS011;46155;52.364;6.580;2023-02-28T09:09:09;3.50;;;3.20;;
60306;SDS011;46155;52.364;6.580;2023-02-28T09:11:35;5.87;;;3.73;;
60306;SDS011;46155;52.364;6.580;2023-02-28T09:14:00;12.53;;;3.80;;
60306;SDS011;46155;52.364;6.580;2023-02-28T09:16:28;3.57;;;3.37;;
60306;SDS011;46155;52.364;6.580;2023-02-28T09:18:54;4.00;;;3.70;;
60306;SDS011;46155;52.364;6.580;2023-02-28T09:21:19;3.73;;;3.43;;
60306;SDS011;46155;52.364;6.580;2023-02-28T09:23:45;3.40;;;3.20;;
60306;SDS011;46155;52.364;6.580;2023-02-28T09:28:41;4.97;;;3.43;;
60306;SDS011;46155;52.364;6.580;2023-02-28T09:31:10;4.93;;;3.63;;
60306;SDS011;46155;52.364;6.580;2023-02-28T09:33:37;3.53;;;3.23;;
60306;SDS011;46155;52.364;6.580;2023-02-28T09:36:02;5.00;;;2.93;;
60306;SDS011;46155;52.364;6.580;2023-02-28T09:38:28;3.67;;;3.47;;
60306;SDS011;46155;52.364;6.580;2023-02-28T09:41:01;3.43;;;2.83;;
60306;SDS011;46155;52.364;6.580;2023-02-28T09:43:30;3.20;;;3.00;;
60306;SDS011;46155;52.364;6.580;2023-02-28T09:48:39;5.43;;;3.27;;
60306;SDS011;46155;52.364;6.580;2023-02-28T09:51:33;5.27;;;3.73;;
60306;SDS011;46155;52.364;6.580;2023-02-28T09:54:09;3.77;;;3.30;;
60306;SDS011;46155;52.364;6.580;2023-02-28T09:56:44;4.70;;;3.30;;
60306;SDS011;46155;52.364;6.580;2023-02-28T10:04:59;3.33;;;3.13;;
60306;SDS011;46155;52.364;6.580;2023-02-28T10:07:50;3.20;;;3.00;;
60306;SDS011;46155;52.364;6.580;2023-02-28T10:15:59;3.47;;;3.23;;
60306;SDS011;46155;52.364;6.580;2023-02-28T10:18:42;3.33;;;3.13;;
60306;SDS011;46155;52.364;6.580;2023-02-28T10:21:23;3.17;;;3.00;;
60306;SDS011;46155;52.364;6.580;2023-02-28T10:23:56;3.20;;;3.00;;
60306;SDS011;46155;52.364;6.580;2023-02-28T10:26:27;6.20;;;3.27;;
60306;SDS011;46155;52.364;6.580;2023-02-28T10:28:55;5.77;;;2.97;;
60306;SDS011;46155;52.364;6.580;2023-02-28T10:31:21;3.23;;;3.07;;
60306;SDS011;46155;52.364;6.580;2023-02-28T10:33:46;4.63;;;3.03;;
60306;SDS011;46155;52.364;6.580;2023-02-28T10:36:16;2.70;;;2.43;;
60306;SDS011;46155;52.364;6.580;2023-02-28T10:38:44;12.87;;;3.23;;
60306;SDS011;46155;52.364;6.580;2023-02-28T10:41:11;3.40;;;3.20;;
60306;SDS011;46155;52.364;6.580;2023-02-28T10:43:53;3.03;;;2.93;;
60306;SDS011;46155;52.364;6.580;2023-02-28T10:46:39;3.07;;;2.97;;
60306;SDS011;46155;52.364;6.580;2023-02-28T10:49:06;3.10;;;2.90;;
60306;SDS011;46155;52.364;6.580;2023-02-28T10:51:39;3.83;;;3.13;;
60306;SDS011;46155;52.364;6.580;2023-02-28T10:54:05;3.80;;;3.33;;
60306;SDS011;46155;52.364;6.580;2023-02-28T10:56:43;3.03;;;2.73;;
60306;SDS011;46155;52.364;6.580;2023-02-28T11:01:40;4.67;;;3.40;;
60306;SDS011;46155;52.364;6.580;2023-02-28T11:07:27;3.50;;;3.20;;
60306;SDS011;46155;52.364;6.580;2023-02-28T11:09:50;3.97;;;3.53;;
60306;SDS011;46155;52.364;6.580;2023-02-28T11:12:19;3.10;;;2.90;;
60306;SDS011;46155;52.364;6.580;2023-02-28T11:14:47;3.53;;;3.23;;
60306;SDS011;46155;52.364;6.580;2023-02-28T11:17:22;3.50;;;3.13;;
60306;SDS011;46155;52.364;6.580;2023-02-28T11:19:52;3.13;;;2.93;;
60306;SDS011;46155;52.364;6.580;2023-02-28T11:22:21;2.63;;;2.43;;
60306;SDS011;46155;52.364;6.580;2023-02-28T11:24:51;3.47;;;3.20;;
60306;SDS011;46155;52.364;6.580;2023-02-28T11:29:54;3.10;;;2.90;;
60306;SDS011;46155;52.364;6.580;2023-02-28T11:32:21;3.47;;;3.23;;
60306;SDS011;46155;52.364;6.580;2023-02-28T11:34:59;3.60;;;3.07;;
60306;SDS011;46155;52.364;6.580;2023-02-28T11:37:25;3.83;;;3.07;;
60306;SDS011;46155;52.364;6.580;2023-02-28T11:39:53;3.67;;;3.30;;
60306;SDS011;46155;52.364;6.580;2023-02-28T11:45:21;3.80;;;3.43;;
60306;SDS011;46155;52.364;6.580;2023-02-28T11:48:26;3.80;;;3.50;;
60306;SDS011;46155;52.364;6.580;2023-02-28T11:56:25;4.17;;;3.60;;
60306;SDS011;46155;52.364;6.580;2023-02-28T11:59:42;4.30;;;3.90;;
60306;SDS011;46155;52.364;6.580;2023-02-28T12:02:19;3.60;;;3.30;;
60306;SDS011;46155;52.364;6.580;2023-02-28T12:07:31;3.83;;;3.57;;
60306;SDS011;46155;52.364;6.580;2023-02-28T12:10:13;4.47;;;4.07;;
60306;SDS011;46155;52.364;6.580;2023-02-28T12:18:52;3.40;;;3.20;;
60306;SDS011;46155;52.364;6.580;2023-02-28T12:21:23;4.53;;;3.83;;
60306;SDS011;46155;52.364;6.580;2023-02-28T12:24:22;3.80;;;3.50;;
60306;SDS011;46155;52.364;6.580;2023-02-28T12:27:18;4.20;;;3.83;;
60306;SDS011;46155;52.364;6.580;2023-02-28T12:29:52;3.87;;;3.57;;
60306;SDS011;46155;52.364;6.580;2023-02-28T12:32:33;5.07;;;3.53;;
60306;SDS011;46155;52.364;6.580;2023-02-28T12:37:42;9.60;;;3.40;;
60306;SDS011;46155;52.364;6.580;2023-02-28T12:40:15;4.30;;;4.00;;
60306;SDS011;46155;52.364;6.580;2023-02-28T12:42:56;4.33;;;3.93;;
60306;SDS011;46155;52.364;6.580;2023-02-28T12:45:36;3.93;;;3.53;;
60306;SDS011;46155;52.364;6.580;2023-02-28T12:48:08;3.80;;;3.40;;
60306;SDS011;46155;52.364;6.580;2023-02-28T12:50:38;3.50;;;3.30;;
60306;SDS011;46155;52.364;6.580;2023-02-28T12:53:09;4.57;;;3.47;;
60306;SDS011;46155;52.364;6.580;2023-02-28T12:55:59;4.63;;;3.67;;
60306;SDS011;46155;52.364;6.580;2023-02-28T12:58:34;3.30;;;3.10;;
60306;SDS011;46155;52.364;6.580;2023-02-28T13:04:07;3.67;;;3.37;;
60306;SDS011;46155;52.364;6.580;2023-02-28T13:09:23;3.63;;;3.43;;
60306;SDS011;46155;52.364;6.580;2023-02-28T13:11:52;3.23;;;3.03;;
60306;SDS011;46155;52.364;6.580;2023-02-28T13:24:53;2.90;;;2.80;;
60306;SDS011;46155;52.364;6.580;2023-02-28T13:27:24;3.57;;;3.30;;
60306;SDS011;46155;52.364;6.580;2023-02-28T13:31:03;4.20;;;3.80;;
60306;SDS011;46155;52.364;6.580;2023-02-28T13:38:41;3.27;;;3.03;;
60306;SDS011;46155;52.364;6.580;2023-02-28T13:44:02;3.50;;;3.20;;
60306;SDS011;46155;52.364;6.580;2023-02-28T13:51:48;3.57;;;3.27;;
60306;SDS011;46155;52.364;6.580;2023-02-28T13:54:31;3.23;;;3.03;;
60306;SDS011;46155;52.364;6.580;2023-02-28T14:05:47;3.30;;;3.10;;
60306;SDS011;46155;52.364;6.580;2023-02-28T14:08:33;4.47;;;3.23;;
60306;SDS011;46155;52.364;6.580;2023-02-28T14:11:06;6.80;;;3.50;;
60306;SDS011;46155;52.364;6.580;2023-02-28T14:13:48;4.03;;;3.73;;
60306;SDS011;46155;52.364;6.580;2023-02-28T14:16:15;4.70;;;3.47;;
60306;SDS011;46155;52.364;6.580;2023-02-28T14:19:09;3.47;;;3.20;;
60306;SDS011;46155;52.364;6.580;2023-02-28T14:21:59;4.77;;;3.23;;
60306;SDS011;46155;52.364;6.580;2023-02-28T14:27:21;4.10;;;3.70;;
60306;SDS011;46155;52.364;6.580;2023-02-28T14:30:15;3.73;;;3.43;;
60306;SDS011;46155;52.364;6.580;2023-02-28T14:35:35;3.90;;;3.70;;
60306;SDS011;46155;52.364;6.580;2023-02-28T14:38:04;3.80;;;3.50;;
60306;SDS011;46155;52.364;6.580;2023-02-28T14:40:33;3.70;;;3.43;;
60306;SDS011;46155;52.364;6.580;2023-02-28T14:43:00;4.13;;;3.83;;
60306;SDS011;46155;52.364;6.580;2023-02-28T14:45:29;3.73;;;3.43;;
60306;SDS011;46155;52.364;6.580;2023-02-28T14:47:57;4.10;;;3.80;;
60306;SDS011;46155;52.364;6.580;2023-02-28T14:50:26;3.73;;;3.53;;
60306;SDS011;46155;52.364;6.580;2023-02-28T14:52:55;4.40;;;3.23;;
60306;SDS011;46155;52.364;6.580;2023-02-28T14:55:31;3.87;;;3.50;;
60306;SDS011;46155;52.364;6.580;2023-02-28T14:58:02;4.00;;;3.23;;
60306;SDS011;46155;52.364;6.580;2023-02-28T15:00:35;3.83;;;3.40;;
60306;SDS011;46155;52.364;6.580;2023-02-28T15:06:04;4.22;;;3.90;;
60306;SDS011;46155;52.364;6.580;2023-02-28T15:08:37;3.87;;;3.57;;
60306;SDS011;46155;52.364;6.580;2023-02-28T15:11:12;4.50;;;4.10;;
60306;SDS011;46155;52.364;6.580;2023-02-28T15:13:54;5.80;;;3.50;;
60306;SDS011;46155;52.364;6.580;2023-02-28T15:16:26;3.90;;;3.60;;
60306;SDS011;46155;52.364;6.580;2023-02-28T15:19:18;6.53;;;3.10;;
60306;SDS011;46155;52.364;6.580;2023-02-28T15:21:45;4.10;;;3.80;;
60306;SDS011;46155;52.364;6.580;2023-02-28T15:26:53;3.33;;;3.03;;
60306;SDS011;46155;52.364;6.580;2023-02-28T15:29:23;3.63;;;3.13;;
60306;SDS011;46155;52.364;6.580;2023-02-28T15:31:52;5.60;;;3.80;;
60306;SDS011;46155;52.364;6.580;2023-02-28T15:34:43;3.90;;;3.40;;
60306;SDS011;46155;52.364;6.580;2023-02-28T15:39:52;3.60;;;3.30;;
60306;SDS011;46155;52.364;6.580;2023-02-28T15:42:20;3.90;;;3.60;;
60306;SDS011;46155;52.364;6.580;2023-02-28T15:44:47;4.00;;;3.70;;
60306;SDS011;46155;52.364;6.580;2023-02-28T15:47:17;3.93;;;3.70;;
60306;SDS011;46155;52.364;6.580;2023-02-28T15:49:45;8.33;;;3.50;;
60306;SDS011;46155;52.364;6.580;2023-02-28T15:52:16;4.77;;;3.47;;
60306;SDS011;46155;52.364;6.580;2023-02-28T15:54:46;3.77;;;3.47;;
60306;SDS011;46155;52.364;6.580;2023-02-28T15:57:17;4.80;;;3.40;;
60306;SDS011;46155;52.364;6.580;2023-02-28T15:59:55;3.57;;;3.37;;
60306;SDS011;46155;52.364;6.580;2023-02-28T16:02:34;3.27;;;3.00;;
60306;SDS011;46155;52.364;6.580;2023-02-28T16:07:39;3.13;;;2.83;;
60306;SDS011;46155;52.364;6.580;2023-02-28T16:10:08;3.57;;;3.27;;
60306;SDS011;46155;52.364;6.580;2023-02-28T16:12:36;3.50;;;3.20;;
60306;SDS011;46155;52.364;6.580;2023-02-28T16:15:07;3.53;;;3.33;;
60306;SDS011;46155;52.364;6.580;2023-02-28T16:17:47;4.60;;;3.93;;
60306;SDS011;46155;52.364;6.580;2023-02-28T16:22:43;3.90;;;3.40;;
60306;SDS011;46155;52.364;6.580;2023-02-28T16:25:13;3.70;;;3.40;;
60306;SDS011;46155;52.364;6.580;2023-02-28T16:27:39;4.60;;;3.80;;
60306;SDS011;46155;52.364;6.580;2023-02-28T16:30:05;3.73;;;3.43;;
60306;SDS011;46155;52.364;6.580;2023-02-28T16:32:34;3.67;;;3.37;;
60306;SDS011;46155;52.364;6.580;2023-02-28T16:35:01;3.63;;;3.00;;
60306;SDS011;46155;52.364;6.580;2023-02-28T16:37:27;3.63;;;3.20;;
60306;SDS011;46155;52.364;6.580;2023-02-28T16:39:53;4.33;;;3.60;;
60306;SDS011;46155;52.364;6.580;2023-02-28T16:42:22;4.30;;;3.40;;
60306;SDS011;46155;52.364;6.580;2023-02-28T16:44:50;3.53;;;3.23;;
60306;SDS011;46155;52.364;6.580;2023-02-28T16:47:16;5.43;;;3.73;;
60306;SDS011;46155;52.364;6.580;2023-02-28T16:49:42;6.70;;;3.20;;
60306;SDS011;46155;52.364;6.580;2023-02-28T16:52:08;4.77;;;3.03;;
60306;SDS011;46155;52.364;6.580;2023-02-28T16:54:34;8.17;;;4.30;;
60306;SDS011;46155;52.364;6.580;2023-02-28T16:57:00;6.07;;;3.70;;
60306;SDS011;46155;52.364;6.580;2023-02-28T16:59:26;6.80;;;4.10;;
60306;SDS011;46155;52.364;6.580;2023-02-28T17:01:53;3.60;;;3.40;;
60306;SDS011;46155;52.364;6.580;2023-02-28T17:04:19;4.93;;;3.63;;
60306;SDS011;46155;52.364;6.580;2023-02-28T17:06:44;3.47;;;2.97;;
60306;SDS011;46155;52.364;6.580;2023-02-28T17:09:17;6.03;;;3.43;;
60306;SDS011;46155;52.364;6.580;2023-02-28T17:11:45;3.17;;;2.87;;
60306;SDS011;46155;52.364;6.580;2023-02-28T17:14:11;4.17;;;3.30;;
60306;SDS011;46155;52.364;6.580;2023-02-28T17:16:37;3.70;;;3.40;;
60306;SDS011;46155;52.364;6.580;2023-02-28T17:19:11;5.53;;;4.67;;
60306;SDS011;46155;52.364;6.580;2023-02-28T17:21:38;5.90;;;5.30;;
60306;SDS011;46155;52.364;6.580;2023-02-28T17:24:04;5.53;;;4.30;;
60306;SDS011;46155;52.364;6.580;2023-02-28T17:26:29;5.10;;;4.67;;
60306;SDS011;46155;52.364;6.580;2023-02-28T17:28:56;6.83;;;4.23;;
60306;SDS011;46155;52.364;6.580;2023-02-28T17:31:22;5.00;;;3.90;;
60306;SDS011;46155;52.364;6.580;2023-02-28T17:33:48;4.50;;;3.93;;
60306;SDS011;46155;52.364;6.580;2023-02-28T17:36:14;4.17;;;3.87;;
60306;SDS011;46155;52.364;6.580;2023-02-28T17:38:41;4.40;;;4.00;;
60306;SDS011;46155;52.364;6.580;2023-02-28T17:41:09;3.73;;;3.50;;
60306;SDS011;46155;52.364;6.580;2023-02-28T17:43:35;4.53;;;4.10;;
60306;SDS011;46155;52.364;6.580;2023-02-28T17:46:00;3.80;;;3.40;;
60306;SDS011;46155;52.364;6.580;2023-02-28T17:48:26;4.30;;;3.93;;
60306;SDS011;46155;52.364;6.580;2023-02-28T17:50:52;5.83;;;4.23;;
60306;SDS011;46155;52.364;6.580;2023-02-28T17:53:18;3.80;;;3.53;;
60306;SDS011;46155;52.364;6.580;2023-02-28T17:55:44;3.90;;;3.57;;
60306;SDS011;46155;52.364;6.580;2023-02-28T17:58:10;4.40;;;4.10;;
60306;SDS011;46155;52.364;6.580;2023-02-28T18:00:37;3.40;;;3.20;;
60306;SDS011;46155;52.364;6.580;2023-02-28T18:03:03;3.97;;;3.57;;
60306;SDS011;46155;52.364;6.580;2023-02-28T18:05:28;4.23;;;3.90;;
60306;SDS011;46155;52.364;6.580;2023-02-28T18:07:53;4.20;;;3.83;;
60306;SDS011;46155;52.364;6.580;2023-02-28T18:10:19;4.03;;;3.70;;
60306;SDS011;46155;52.364;6.580;2023-02-28T18:12:46;4.57;;;4.17;;
60306;SDS011;46155;52.364;6.580;2023-02-28T18:15:13;5.03;;;3.67;;
60306;SDS011;46155;52.364;6.580;2023-02-28T18:17:38;4.10;;;3.80;;
60306;SDS011;46155;52.364;6.580;2023-02-28T18:20:04;5.80;;;4.57;;
60306;SDS011;46155;52.364;6.580;2023-02-28T18:22:30;4.30;;;3.90;;
60306;SDS011;46155;52.364;6.580;2023-02-28T18:24:55;3.63;;;3.33;;
60306;SDS011;46155;52.364;6.580;2023-02-28T18:27:21;5.67;;;4.00;;
60306;SDS011;46155;52.364;6.580;2023-02-28T18:29:46;3.63;;;3.43;;
60306;SDS011;46155;52.364;6.580;2023-02-28T18:32:13;3.43;;;3.20;;
60306;SDS011;46155;52.364;6.580;2023-02-28T18:34:38;3.63;;;3.33;;
60306;SDS011;46155;52.364;6.580;2023-02-28T18:37:04;4.03;;;3.43;;
60306;SDS011;46155;52.364;6.580;2023-02-28T18:39:30;4.33;;;4.03;;
60306;SDS011;46155;52.364;6.580;2023-02-28T18:41:56;3.47;;;3.17;;
60306;SDS011;46155;52.364;6.580;2023-02-28T18:44:21;5.40;;;3.80;;
60306;SDS011;46155;52.364;6.580;2023-02-28T18:46:47;4.20;;;3.90;;
60306;SDS011;46155;52.364;6.580;2023-02-28T18:49:13;4.17;;;3.83;;
60306;SDS011;46155;52.364;6.580;2023-02-28T18:51:39;4.53;;;4.13;;
60306;SDS011;46155;52.364;6.580;2023-02-28T18:54:08;5.40;;;4.90;;
60306;SDS011;46155;52.364;6.580;2023-02-28T18:56:34;6.43;;;4.70;;
60306;SDS011;46155;52.364;6.580;2023-02-28T18:58:59;4.57;;;4.17;;
60306;SDS011;46155;52.364;6.580;2023-02-28T19:01:26;4.10;;;3.70;;
60306;SDS011;46155;52.364;6.580;2023-02-28T19:03:55;5.53;;;4.87;;
60306;SDS011;46155;52.364;6.580;2023-02-28T19:06:21;4.90;;;4.50;;
60306;SDS011;46155;52.364;6.580;2023-02-28T19:08:47;7.90;;;4.70;;
60306;SDS011;46155;52.364;6.580;2023-02-28T19:11:17;5.07;;;4.53;;
60306;SDS011;46155;52.364;6.580;2023-02-28T19:13:43;5.50;;;4.87;;
60306;SDS011;46155;52.364;6.580;2023-02-28T19:16:10;7.43;;;5.20;;
60306;SDS011;46155;52.364;6.580;2023-02-28T19:18:37;6.57;;;5.53;;
60306;SDS011;46155;52.364;6.580;2023-02-28T19:21:02;5.60;;;4.87;;
60306;SDS011;46155;52.364;6.580;2023-02-28T19:23:30;5.93;;;5.33;;
60306;SDS011;46155;52.364;6.580;2023-02-28T19:25:56;9.57;;;4.90;;
60306;SDS011;46155;52.364;6.580;2023-02-28T19:28:21;8.93;;;5.30;;
60306;SDS011;46155;52.364;6.580;2023-02-28T19:30:55;5.37;;;4.87;;
60306;SDS011;46155;52.364;6.580;2023-02-28T19:33:21;6.00;;;5.13;;
60306;SDS011;46155;52.364;6.580;2023-02-28T19:35:46;7.03;;;5.20;;
60306;SDS011;46155;52.364;6.580;2023-02-28T19:38:12;8.13;;;4.60;;
60306;SDS011;46155;52.364;6.580;2023-02-28T19:40:38;5.83;;;4.80;;
60306;SDS011;46155;52.364;6.580;2023-02-28T19:43:04;7.53;;;4.60;;
60306;SDS011;46155;52.364;6.580;2023-02-28T19:45:31;5.60;;;5.10;;
60306;SDS011;46155;52.364;6.580;2023-02-28T19:47:57;7.90;;;4.60;;
60306;SDS011;46155;52.364;6.580;2023-02-28T19:50:23;7.37;;;4.60;;
60306;SDS011;46155;52.364;6.580;2023-02-28T19:52:49;4.63;;;4.23;;
60306;SDS011;46155;52.364;6.580;2023-02-28T19:55:14;6.17;;;4.63;;
60306;SDS011;46155;52.364;6.580;2023-02-28T19:57:41;8.67;;;4.70;;
60306;SDS011;46155;52.364;6.580;2023-02-28T20:00:07;5.40;;;4.83;;
60306;SDS011;46155;52.364;6.580;2023-02-28T20:02:37;8.50;;;4.60;;
60306;SDS011;46155;52.364;6.580;2023-02-28T20:05:03;11.03;;;4.33;;
60306;SDS011;46155;52.364;6.580;2023-02-28T20:07:29;4.27;;;3.83;;
60306;SDS011;46155;52.364;6.580;2023-02-28T20:09:55;7.60;;;4.77;;
60306;SDS011;46155;52.364;6.580;2023-02-28T20:12:21;4.73;;;4.17;;
60306;SDS011;46155;52.364;6.580;2023-02-28T20:14:50;6.17;;;4.53;;
60306;SDS011;46155;52.364;6.580;2023-02-28T20:17:16;5.57;;;4.47;;
60306;SDS011;46155;52.364;6.580;2023-02-28T20:19:42;5.60;;;4.60;;
60306;SDS011;46155;52.364;6.580;2023-02-28T20:22:07;6.73;;;4.30;;
60306;SDS011;46155;52.364;6.580;2023-02-28T20:24:34;6.93;;;5.13;;
60306;SDS011;46155;52.364;6.580;2023-02-28T20:26:59;7.77;;;4.87;;
60306;SDS011;46155;52.364;6.580;2023-02-28T20:29:25;5.00;;;4.53;;
60306;SDS011;46155;52.364;6.580;2023-02-28T20:31:50;8.83;;;4.93;;
60306;SDS011;46155;52.364;6.580;2023-02-28T20:34:16;5.90;;;4.17;;
60306;SDS011;46155;52.364;6.580;2023-02-28T20:36:42;7.90;;;4.70;;
60306;SDS011;46155;52.364;6.580;2023-02-28T20:39:07;5.17;;;4.10;;
60306;SDS011;46155;52.364;6.580;2023-02-28T20:41:33;5.40;;;4.80;;